Time;durP1;ratioP1;P1;durP2;ratioP2;P2;SDS_P1;SDS_P2;PMS_P1;PMS_P2;Temp;Humidity;BMP_temperature;BMP_pressure;BME280_temperature;BME280_humidity;BME280_pressure;Samples;Min_cycle;Max_cycle;Signal;HPM_P1;HPM_P2
2024/01/21 00:01:23;;;;;;;9.18;6.30;;;-6.00;99.90;;;;;;4858621;29;20033;-66
2024/01/21 00:03:49;;;;;;;13.27;6.88;;;-6.10;99.90;;;;;;4857104;29;20366;-66
2024/01/21 00:06:15;;;;;;;5.85;4.85;;;-6.10;99.90;;;;;;4855550;29;20037;-66
2024/01/21 00:08:41;;;;;;;5.45;5.05;;;-6.30;99.90;;;;;;4857030;29;20439;-66
2024/01/21 00:11:07;;;;;;;7.57;4.53;;;-6.40;99.90;;;;;;4860108;29;20026;-66
2024/01/21 00:13:33;;;;;;;9.77;7.47;;;-6.30;99.90;;;;;;4858259;29;20081;-66
2024/01/21 00:15:59;;;;;;;7.65;5.43;;;-6.30;99.90;;;;;;4859874;29;20092;-66
2024/01/21 00:18:25;;;;;;;14.70;4.13;;;-6.20;99.90;;;;;;4858999;29;20112;-66
2024/01/21 00:20:51;;;;;;;12.45;7.30;;;-6.20;99.90;;;;;;4856898;29;20037;-66
2024/01/21 00:23:17;;;;;;;8.48;6.68;;;-6.30;99.90;;;;;;4856758;29;20043;-66
2024/01/21 00:25:45;;;;;;;16.50;7.93;;;-6.40;99.90;;;;;;4858618;29;20042;-66
2024/01/21 00:28:11;;;;;;;12.25;4.68;;;-6.20;99.90;;;;;;4856826;29;20044;-68
2024/01/21 00:30:37;;;;;;;10.02;7.25;;;-6.30;99.90;;;;;;4859751;29;20025;-68
2024/01/21 00:33:05;;;;;;;10.75;5.60;;;-6.50;99.90;;;;;;4858247;29;20049;-68
2024/01/21 00:35:33;;;;;;;;;;;-6.40;99.90;;;;;;4871682;29;20057;-66
2024/01/21 00:37:59;;;;;;;4.32;3.30;;;-6.30;99.90;;;;;;4858043;29;20015;-66
2024/01/21 00:40:28;;;;;;;14.20;6.65;;;-6.40;99.90;;;;;;4858769;29;20113;-66
2024/01/21 00:42:58;;;;;;;10.20;6.30;;;-6.30;99.90;;;;;;4858795;29;20040;-66
2024/01/21 00:45:27;;;;;;;12.20;7.20;;;-6.40;99.90;;;;;;4859771;29;20025;-66
2024/01/21 00:47:56;;;;;;;7.93;4.82;;;-6.30;99.90;;;;;;4856371;29;20322;-66
2024/01/21 00:50:22;;;;;;;10.07;5.72;;;-6.30;99.90;;;;;;4858112;29;20064;-66
2024/01/21 00:52:51;;;;;;;6.82;6.20;;;-6.20;99.90;;;;;;4857039;29;20112;-65
2024/01/21 00:55:17;;;;;;;17.67;7.75;;;-6.20;99.90;;;;;;4857694;29;20082;-65
2024/01/21 00:57:42;;;;;;;11.18;6.07;;;-6.30;99.90;;;;;;4858488;29;20057;-65
2024/01/21 01:00:09;;;;;;;10.50;5.13;;;-6.50;99.90;;;;;;4858885;29;20136;-65
2024/01/21 01:02:35;;;;;;;12.65;8.25;;;-6.50;99.90;;;;;;4855530;29;20040;-65
2024/01/21 01:05:00;;;;;;;12.32;6.68;;;-6.40;99.90;;;;;;4858365;29;20041;-67
2024/01/21 01:07:26;;;;;;;10.48;4.93;;;-6.40;99.90;;;;;;4857968;29;20128;-67
2024/01/21 01:09:52;;;;;;;14.93;4.63;;;-6.30;99.90;;;;;;4858391;29;20517;-67
2024/01/21 01:12:18;;;;;;;10.25;7.13;;;-6.20;99.90;;;;;;4858498;29;20044;-67
2024/01/21 01:14:43;;;;;;;16.33;8.05;;;-6.10;99.90;;;;;;4857448;29;20120;-66
2024/01/21 01:17:09;;;;;;;13.75;6.85;;;-6.20;99.90;;;;;;4858026;29;20550;-66
2024/01/21 01:19:35;;;;;;;13.35;5.68;;;-6.10;99.90;;;;;;4857546;29;20030;-65
2024/01/21 01:22:02;;;;;;;8.00;4.03;;;-6.10;99.90;;;;;;4858527;29;20029;-65
2024/01/21 01:24:27;;;;;;;18.00;7.32;;;-6.00;99.90;;;;;;4857212;29;20030;-65
2024/01/21 01:26:53;;;;;;;12.05;5.38;;;-5.90;99.90;;;;;;4858440;29;20093;-65
2024/01/21 01:29:19;;;;;;;11.13;6.38;;;-6.00;99.90;;;;;;4858274;29;20038;-66
2024/01/21 01:31:44;;;;;;;26.95;10.95;;;-5.90;99.90;;;;;;4858585;29;20025;-66
2024/01/21 01:34:11;;;;;;;14.48;8.60;;;-5.90;99.90;;;;;;4858109;29;20070;-66
2024/01/21 01:36:37;;;;;;;10.43;8.23;;;-5.80;99.90;;;;;;4858666;29;20025;-66
2024/01/21 01:39:03;;;;;;;12.48;8.00;;;-5.70;99.90;;;;;;4855153;29;20528;-66
2024/01/21 01:41:28;;;;;;;24.10;6.68;;;-5.70;99.90;;;;;;4857493;29;20040;-66
2024/01/21 01:43:54;;;;;;;12.75;7.40;;;-5.60;99.90;;;;;;4857552;29;20037;-66
2024/01/21 01:46:20;;;;;;;14.68;9.63;;;-5.70;99.90;;;;;;4857842;29;20093;-67
2024/01/21 01:48:45;;;;;;;27.60;9.93;;;-5.50;99.90;;;;;;4855011;29;20088;-66
2024/01/21 01:51:11;;;;;;;26.85;6.45;;;-5.50;99.90;;;;;;4858327;29;20521;-66
2024/01/21 01:53:37;;;;;;;10.68;8.85;;;-5.50;99.90;;;;;;4853740;29;20112;-66
2024/01/21 01:56:04;;;;;;;18.15;9.68;;;-5.50;99.90;;;;;;4855813;29;20030;-66
2024/01/21 01:58:31;;;;;;;20.90;10.35;;;-5.60;99.90;;;;;;4854809;29;20680;-66
2024/01/21 02:00:57;;;;;;;22.88;7.45;;;-5.70;99.90;;;;;;4856584;29;20136;-66
2024/01/21 02:03:24;;;;;;;21.23;10.95;;;-5.70;99.90;;;;;;4854520;29;20025;-66
2024/01/21 02:05:50;;;;;;;11.30;6.70;;;-5.70;99.90;;;;;;4850653;29;20038;-66
2024/01/21 02:08:16;;;;;;;9.80;7.05;;;-5.70;99.90;;;;;;4849687;29;20491;-66
2024/01/21 02:10:42;;;;;;;31.50;8.43;;;-5.70;99.90;;;;;;4862630;29;20065;-66
2024/01/21 02:13:08;;;;;;;22.77;7.82;;;-5.90;99.90;;;;;;4855813;29;20026;-66
2024/01/21 02:15:34;;;;;;;12.38;7.32;;;-5.90;99.90;;;;;;4857448;29;20044;-66
2024/01/21 02:17:59;;;;;;;27.02;8.57;;;-5.80;99.90;;;;;;4855870;29;20462;-66
2024/01/21 02:20:25;;;;;;;14.70;6.85;;;-5.90;99.90;;;;;;4860119;29;20033;-66
2024/01/21 02:22:56;;;;;;;13.23;8.85;;;-6.00;99.90;;;;;;4857262;29;20048;-66
2024/01/21 02:25:22;;;;;;;14.48;7.95;;;-5.90;99.90;;;;;;4861545;29;20086;-66
2024/01/21 02:27:48;;;;;;;30.88;6.07;;;-6.00;99.90;;;;;;4860647;29;20057;-66
2024/01/21 02:30:14;;;;;;;20.88;8.45;;;-6.00;99.90;;;;;;4875408;29;20094;-66
2024/01/21 02:32:39;;;;;;;4.63;4.22;;;-6.00;99.90;;;;;;4860507;29;20033;-66
2024/01/21 02:35:08;;;;;;;14.02;7.20;;;-6.10;99.90;;;;;;4861299;29;20036;-66
2024/01/21 02:37:34;;;;;;;11.73;5.28;;;-6.10;99.90;;;;;;4860837;29;20041;-66
2024/01/21 02:39:59;;;;;;;15.13;8.15;;;-6.20;99.90;;;;;;4844826;29;20108;-66
2024/01/21 02:42:26;;;;;;;7.57;6.00;;;-6.20;99.90;;;;;;4860377;29;20029;-66
2024/01/21 02:44:54;;;;;;;12.95;6.32;;;-6.30;99.90;;;;;;4873124;29;20154;-66
2024/01/21 02:47:20;;;;;;;21.90;10.73;;;-6.30;99.90;;;;;;4854786;29;20097;-66
2024/01/21 02:49:45;;;;;;;17.98;8.02;;;-6.30;99.90;;;;;;4861234;29;20033;-66
2024/01/21 02:52:11;;;;;;;17.20;12.52;;;-6.20;99.90;;;;;;4859493;29;20026;-66
2024/01/21 02:54:37;;;;;;;13.75;7.25;;;-6.20;99.90;;;;;;4858204;29;20037;-66
2024/01/21 02:57:03;;;;;;;8.90;4.82;;;-6.10;99.90;;;;;;4859018;29;20039;-66
2024/01/21 02:59:29;;;;;;;23.80;8.88;;;-6.20;99.90;;;;;;4861346;29;20432;-66
2024/01/21 03:01:54;;;;;;;14.02;7.28;;;-6.20;99.90;;;;;;4860630;29;20049;-66
2024/01/21 03:04:20;;;;;;;12.00;5.57;;;-6.20;99.90;;;;;;4859802;29;20483;-67
2024/01/21 03:06:46;;;;;;;15.02;6.60;;;-6.20;99.90;;;;;;4858933;29;20021;-65
2024/01/21 03:09:11;;;;;;;14.10;7.53;;;-6.20;99.90;;;;;;4860838;29;20467;-69
2024/01/21 03:11:40;;;;;;;12.88;6.55;;;-6.20;99.90;;;;;;4859023;29;20033;-66
2024/01/21 03:14:07;;;;;;;27.30;11.75;;;-6.20;99.90;;;;;;4860438;29;20025;-66
2024/01/21 03:16:33;;;;;;;15.60;5.22;;;-6.10;99.90;;;;;;4860740;29;20029;-66
2024/01/21 03:18:59;;;;;;;11.88;7.63;;;-6.10;99.90;;;;;;4859376;29;20025;-66
2024/01/21 03:21:24;;;;;;;24.35;8.35;;;-6.20;99.90;;;;;;4860530;29;20092;-66
2024/01/21 03:23:50;;;;;;;11.30;7.05;;;-6.30;99.90;;;;;;4860593;29;20037;-67
2024/01/21 03:26:16;;;;;;;29.67;9.27;;;-6.30;99.90;;;;;;4860332;29;20057;-67
2024/01/21 03:28:44;;;;;;;13.63;7.50;;;-6.30;99.90;;;;;;4860202;29;20026;-66
2024/01/21 03:31:09;;;;;;;19.08;10.73;;;-6.20;99.90;;;;;;4860045;29;20037;-67
2024/01/21 03:33:35;;;;;;;25.02;8.65;;;-6.20;99.90;;;;;;4860340;29;20493;-66
2024/01/21 03:36:01;;;;;;;11.95;6.35;;;-6.20;99.90;;;;;;4853786;29;20528;-66
2024/01/21 03:38:27;;;;;;;8.60;5.13;;;-6.20;99.90;;;;;;4859273;29;20069;-66
2024/01/21 03:40:53;;;;;;;10.07;7.35;;;-6.20;99.90;;;;;;4860037;29;20053;-66
2024/01/21 03:43:19;;;;;;;13.13;7.95;;;-6.20;99.90;;;;;;4843299;29;20026;-66
2024/01/21 03:45:44;;;;;;;11.07;7.32;;;-6.20;99.90;;;;;;4860974;29;20497;-66
2024/01/21 03:48:11;;;;;;;20.40;10.65;;;-6.30;99.90;;;;;;4859996;29;20060;-66
2024/01/21 03:50:37;;;;;;;12.75;8.73;;;-6.20;99.90;;;;;;4858004;29;20061;-66
2024/01/21 03:53:02;;;;;;;13.02;4.97;;;-6.20;99.90;;;;;;4855953;29;20109;-67
2024/01/21 03:55:29;;;;;;;15.48;5.70;;;-6.20;99.90;;;;;;4857714;29;20468;-65
2024/01/21 03:57:54;;;;;;;7.35;5.57;;;-6.20;99.90;;;;;;4856363;29;20037;-65
2024/01/21 04:00:20;;;;;;;21.35;8.93;;;-6.10;99.90;;;;;;4859008;29;20037;-65
2024/01/21 04:02:46;;;;;;;10.95;5.32;;;-6.10;99.90;;;;;;4857915;29;20033;-65
2024/01/21 04:05:12;;;;;;;22.65;8.35;;;-6.10;99.90;;;;;;4855396;29;20089;-65
2024/01/21 04:07:37;;;;;;;16.90;9.23;;;-6.10;99.90;;;;;;4859507;29;20049;-65
2024/01/21 04:10:04;;;;;;;18.70;4.90;;;-6.10;99.90;;;;;;4859323;29;20029;-66
2024/01/21 04:12:30;;;;;;;18.13;10.68;;;-6.10;99.90;;;;;;4858663;29;20085;-65
2024/01/21 04:14:56;;;;;;;10.93;6.30;;;-6.00;99.90;;;;;;4859443;29;20026;-66
2024/01/21 04:17:23;;;;;;;16.73;10.15;;;-6.00;99.90;;;;;;4857456;29;20025;-66
2024/01/21 04:19:49;;;;;;;18.13;10.63;;;-6.00;99.90;;;;;;4858082;29;20024;-66
2024/01/21 04:22:18;;;;;;;28.15;8.32;;;-6.00;99.90;;;;;;4856464;29;20037;-66
2024/01/21 04:24:43;;;;;;;24.42;11.82;;;-6.00;99.90;;;;;;4870531;29;20030;-66
2024/01/21 04:27:09;;;;;;;17.75;9.35;;;-6.00;99.90;;;;;;4857384;29;20045;-66
2024/01/21 04:29:37;;;;;;;12.57;6.28;;;-5.90;99.90;;;;;;4859284;29;20459;-66
2024/01/21 04:32:03;;;;;;;23.65;8.75;;;-5.90;99.90;;;;;;4858548;29;20112;-66
2024/01/21 04:34:29;;;;;;;11.68;7.78;;;-5.90;99.90;;;;;;4873442;29;20499;-66
2024/01/21 04:36:54;;;;;;;21.25;14.55;;;-5.90;99.90;;;;;;4858818;29;20041;-66
2024/01/21 04:39:21;;;;;;;20.08;9.75;;;-5.90;99.90;;;;;;4859193;29;20104;-66
2024/01/21 04:41:48;;;;;;;19.52;9.38;;;-5.90;99.90;;;;;;4858532;29;20048;-66
2024/01/21 04:44:14;;;;;;;11.82;8.73;;;-6.00;99.90;;;;;;4858223;29;20032;-66
2024/01/21 04:46:39;;;;;;;22.38;10.50;;;-6.10;99.90;;;;;;4860351;29;20395;-66
2024/01/21 04:49:05;;;;;;;14.32;7.53;;;-6.20;99.90;;;;;;4857999;29;20458;-66
2024/01/21 04:51:31;;;;;;;12.82;7.65;;;-6.20;99.90;;;;;;4872364;29;20037;-66
2024/01/21 04:53:57;;;;;;;15.55;10.57;;;-6.20;99.90;;;;;;4858574;29;20077;-66
2024/01/21 04:56:22;;;;;;;17.63;9.23;;;-6.30;99.90;;;;;;4858394;29;20033;-66
2024/01/21 04:58:48;;;;;;;24.17;9.38;;;-6.30;99.90;;;;;;4858842;29;20061;-66
2024/01/21 05:01:16;;;;;;;13.15;8.77;;;-6.40;99.90;;;;;;4873153;29;20100;-65
2024/01/21 05:03:42;;;;;;;13.15;8.45;;;-6.40;99.90;;;;;;4858410;29;20367;-65
2024/01/21 05:06:08;;;;;;;6.88;5.80;;;-6.50;99.90;;;;;;4858604;29;20041;-65
2024/01/21 05:08:34;;;;;;;11.27;5.72;;;-6.50;99.90;;;;;;4858694;29;20064;-65
2024/01/21 05:11:00;;;;;;;13.57;8.32;;;-6.60;99.90;;;;;;4856170;29;20037;-66
2024/01/21 05:13:26;;;;;;;13.90;7.75;;;-6.50;99.90;;;;;;4857295;29;20024;-66
2024/01/21 05:15:51;;;;;;;7.05;6.32;;;-6.60;99.90;;;;;;4868315;29;20626;-66
2024/01/21 05:18:19;;;;;;;18.70;6.47;;;-6.60;99.90;;;;;;4858656;29;20048;-66
2024/01/21 05:20:45;;;;;;;13.63;5.22;;;-6.80;99.90;;;;;;4858219;29;20037;-66
2024/01/21 05:23:11;;;;;;;21.92;8.85;;;-7.00;99.90;;;;;;4856959;29;20471;-66
2024/01/21 05:25:37;;;;;;;12.40;5.75;;;-7.10;99.90;;;;;;4857635;29;20046;-66
2024/01/21 05:28:03;;;;;;;8.40;6.18;;;-7.10;99.90;;;;;;4858557;29;20061;-66
2024/01/21 05:30:28;;;;;;;5.15;4.15;;;-7.30;99.90;;;;;;4858468;29;20506;-66
2024/01/21 05:32:54;;;;;;;15.77;7.30;;;-7.30;99.90;;;;;;4857124;29;20120;-66
2024/01/21 05:35:22;;;;;;;5.63;5.18;;;-7.50;99.90;;;;;;4858124;29;20057;-66
2024/01/21 05:37:48;;;;;;;31.48;6.50;;;-7.60;99.90;;;;;;4872385;29;20041;-66
2024/01/21 05:40:14;;;;;;;7.07;6.35;;;-7.70;99.90;;;;;;4857674;29;20029;-66
2024/01/21 05:42:40;;;;;;;13.35;5.85;;;-7.60;99.90;;;;;;4858238;29;20530;-66
2024/01/21 05:45:08;;;;;;;15.20;8.57;;;-7.70;99.90;;;;;;4856427;29;20096;-66
2024/01/21 05:47:34;;;;;;;10.23;5.28;;;-7.70;99.90;;;;;;4855958;29;20045;-66
2024/01/21 05:49:59;;;;;;;8.38;6.20;;;-7.80;99.90;;;;;;4858379;29;20135;-66
2024/01/21 05:52:25;;;;;;;18.95;5.63;;;-7.80;99.90;;;;;;4856214;29;20034;-66
2024/01/21 05:54:51;;;;;;;4.05;3.75;;;-7.70;99.90;;;;;;4859670;29;20657;-66
2024/01/21 05:57:16;;;;;;;8.98;7.60;;;-7.70;99.90;;;;;;4861327;29;20172;-66
2024/01/21 05:59:43;;;;;;;11.43;7.00;;;-7.60;99.90;;;;;;4860103;29;20061;-66
2024/01/21 06:02:10;;;;;;;12.90;4.97;;;-7.60;99.90;;;;;;4874779;29;20038;-66
2024/01/21 06:04:37;;;;;;;12.82;5.68;;;-7.50;99.90;;;;;;4860677;29;20362;-66
2024/01/21 06:07:03;;;;;;;8.82;5.68;;;-7.60;99.90;;;;;;4859452;29;20064;-66
2024/01/21 06:09:29;;;;;;;7.63;4.78;;;-7.80;99.90;;;;;;4860103;29;20443;-66
2024/01/21 06:11:55;;;;;;;14.10;9.00;;;-7.80;99.90;;;;;;4860410;29;20112;-66
2024/01/21 06:14:20;;;;;;;8.00;5.35;;;-7.80;99.90;;;;;;4860730;29;20041;-66
2024/01/21 06:16:46;;;;;;;5.25;4.60;;;-7.70;99.90;;;;;;4839190;29;20551;-70
2024/01/21 06:19:12;;;;;;;16.27;4.85;;;-7.70;99.90;;;;;;4860183;29;20030;-70
2024/01/21 06:21:45;;;;;;;9.35;5.53;;;-7.80;99.90;;;;;;4860134;29;20422;-72
2024/01/21 06:24:12;;;;;;;12.25;7.05;;;-7.70;99.90;;;;;;4867925;29;20103;-65
2024/01/21 06:26:38;;;;;;;6.93;5.10;;;-7.90;99.90;;;;;;4857564;29;20139;-65
2024/01/21 06:29:04;;;;;;;5.47;3.28;;;-8.00;99.90;;;;;;4863203;29;20037;-68
2024/01/21 06:31:33;;;;;;;5.28;4.68;;;-8.00;99.90;;;;;;4876472;29;20049;-65
2024/01/21 06:33:59;;;;;;;22.98;7.10;;;-8.00;99.90;;;;;;4860047;29;20430;-65
2024/01/21 06:36:25;;;;;;;8.18;6.05;;;-8.00;99.90;;;;;;4856789;29;20120;-65
2024/01/21 06:38:51;;;;;;;14.88;5.43;;;-7.90;99.90;;;;;;4861598;29;20044;-65
2024/01/21 06:41:17;;;;;;;6.35;4.45;;;-7.90;99.90;;;;;;4856341;29;20042;-66
2024/01/21 06:43:43;;;;;;;13.70;3.60;;;-7.80;99.90;;;;;;4861156;29;20087;-65
2024/01/21 06:46:10;;;;;;;8.60;5.95;;;-7.80;99.90;;;;;;4860869;29;20499;-65
2024/01/21 06:48:35;;;;;;;4.22;3.85;;;-7.90;99.90;;;;;;4859744;29;20319;-68
2024/01/21 06:51:09;;;;;;;13.43;7.38;;;-7.90;99.90;;;;;;4860951;29;20116;-66
2024/01/21 06:53:35;;;;;;;7.82;4.97;;;-8.00;99.90;;;;;;4859868;29;20029;-66
2024/01/21 06:56:10;;;;;;;11.32;6.85;;;-7.90;99.90;;;;;;4856441;29;20029;-66
2024/01/21 06:58:36;;;;;;;15.32;6.45;;;-7.90;99.90;;;;;;4875809;29;20739;-67
2024/01/21 07:01:02;;;;;;;23.67;8.60;;;-7.80;99.90;;;;;;4860654;29;20493;-67
2024/01/21 07:03:29;;;;;;;6.43;4.75;;;-7.80;99.90;;;;;;4861307;29;20042;-67
2024/01/21 07:05:55;;;;;;;6.95;4.38;;;-7.60;99.90;;;;;;4855731;29;20433;-66
2024/01/21 07:08:21;;;;;;;3.78;3.47;;;-7.60;99.90;;;;;;4860006;29;20487;-65
2024/01/21 07:10:47;;;;;;;47.58;8.35;;;-7.50;99.90;;;;;;4860655;29;20037;-66
2024/01/21 07:13:12;;;;;;;15.32;7.40;;;-7.50;99.90;;;;;;4875359;29;20052;-67
2024/01/21 07:15:39;;;;;;;10.27;5.10;;;-7.40;99.90;;;;;;4856042;29;20058;-66
2024/01/21 07:18:07;;;;;;;7.72;4.75;;;-7.30;99.90;;;;;;4875245;29;20040;-66
2024/01/21 07:20:33;;;;;;;13.80;7.38;;;-7.30;99.90;;;;;;4858568;29;20454;-66
2024/01/21 07:22:59;;;;;;;11.15;4.90;;;-7.20;99.90;;;;;;4859664;29;20112;-66
2024/01/21 07:25:25;;;;;;;10.73;5.93;;;-7.10;99.90;;;;;;4858982;29;20040;-67
2024/01/21 07:27:51;;;;;;;6.43;5.53;;;-7.10;99.90;;;;;;4861086;29;20037;-66
2024/01/21 07:30:17;;;;;;;12.93;5.60;;;-6.90;99.90;;;;;;4859827;29;20026;-66
2024/01/21 07:32:43;;;;;;;13.77;7.10;;;-6.90;99.90;;;;;;4875236;29;20553;-67
2024/01/21 07:35:09;;;;;;;9.80;6.50;;;-6.70;99.90;;;;;;4859753;29;20026;-66
2024/01/21 07:37:36;;;;;;;6.85;5.90;;;-6.70;99.90;;;;;;4856435;29;20037;-66
2024/01/21 07:40:04;;;;;;;8.15;6.72;;;-6.50;99.90;;;;;;4859557;29;20040;-66
2024/01/21 07:42:30;;;;;;;5.40;4.82;;;-6.40;99.90;;;;;;4860068;29;20064;-66
2024/01/21 07:44:56;;;;;;;17.13;7.78;;;-6.30;99.90;;;;;;4860893;29;20475;-66
2024/01/21 07:47:21;;;;;;;17.63;9.13;;;-6.20;99.90;;;;;;4874611;29;20037;-66
2024/01/21 07:49:47;;;;;;;16.25;5.72;;;-6.10;99.90;;;;;;4860944;29;20065;-67
2024/01/21 07:52:13;;;;;;;20.67;5.53;;;-6.00;99.90;;;;;;4860027;29;20451;-70
2024/01/21 07:54:39;;;;;;;7.78;4.80;;;-6.00;99.90;;;;;;4874821;29;20036;-69
2024/01/21 07:57:05;;;;;;;5.13;3.80;;;-6.00;99.90;;;;;;4855517;29;20025;-65
2024/01/21 07:59:31;;;;;;;11.90;5.78;;;-5.90;99.90;;;;;;4860476;29;20044;-66
2024/01/21 08:01:56;;;;;;;13.52;6.80;;;-5.80;99.90;;;;;;4855286;29;20045;-66
2024/01/21 08:04:22;;;;;;;19.50;5.35;;;-5.80;99.90;;;;;;4859403;29;20066;-64
2024/01/21 08:06:48;;;;;;;3.88;3.58;;;-5.80;99.90;;;;;;4857199;29;20041;-69
2024/01/21 08:09:15;;;;;;;15.73;6.05;;;-5.90;99.90;;;;;;4860056;29;20037;-65
2024/01/21 08:11:41;;;;;;;6.55;3.63;;;-5.90;99.90;;;;;;4859581;29;20022;-66
2024/01/21 08:14:07;;;;;;;9.02;7.03;;;-5.90;99.90;;;;;;4860327;29;20033;-65
2024/01/21 08:16:33;;;;;;;13.23;7.35;;;-5.90;99.90;;;;;;4859955;29;20037;-65
2024/01/21 08:18:58;;;;;;;6.07;5.35;;;-5.80;99.90;;;;;;4860030;29;20045;-65
2024/01/21 08:21:24;;;;;;;8.40;5.75;;;-5.80;99.90;;;;;;4855442;29;20444;-66
2024/01/21 08:23:50;;;;;;;9.60;5.60;;;-5.70;99.90;;;;;;4859887;29;20060;-64
2024/01/21 08:26:19;;;;;;;11.82;5.80;;;-5.60;99.90;;;;;;4859655;29;20506;-64
2024/01/21 08:28:44;;;;;;;10.80;6.45;;;-5.60;99.90;;;;;;4874415;29;20038;-65
2024/01/21 08:31:10;;;;;;;15.77;9.15;;;-5.40;99.90;;;;;;4855914;29;20112;-65
2024/01/21 08:33:36;;;;;;;15.30;7.22;;;-5.40;99.90;;;;;;4858592;29;20053;-67
2024/01/21 08:36:02;;;;;;;10.77;6.32;;;-5.30;99.90;;;;;;4856714;29;20041;-65
2024/01/21 08:38:29;;;;;;;11.35;6.82;;;-5.20;99.90;;;;;;4859425;29;20052;-66
2024/01/21 08:40:54;;;;;;;15.68;7.45;;;-5.00;99.90;;;;;;4839600;29;20038;-66
2024/01/21 08:43:20;;;;;;;8.93;6.47;;;-4.90;99.90;;;;;;4843788;29;20089;-66
2024/01/21 08:45:46;;;;;;;9.57;5.45;;;-4.70;99.90;;;;;;4858404;29;20033;-67
2024/01/21 08:48:11;;;;;;;24.08;7.38;;;-4.60;99.90;;;;;;4859196;29;20121;-66
2024/01/21 08:50:37;;;;;;;25.65;8.55;;;-4.50;99.90;;;;;;4856691;29;20038;-66
2024/01/21 08:53:03;;;;;;;15.50;6.43;;;-4.40;99.90;;;;;;4858809;29;20025;-66
2024/01/21 08:55:29;;;;;;;15.60;6.00;;;-4.30;99.90;;;;;;4859031;29;20049;-66
2024/01/21 08:57:55;;;;;;;12.52;5.90;;;-4.10;99.90;;;;;;4859936;29;20093;-67
2024/01/21 09:00:21;;;;;;;9.32;6.97;;;-4.00;99.90;;;;;;4856580;29;20033;-67
2024/01/21 09:02:46;;;;;;;10.13;7.32;;;-3.70;99.90;;;;;;4873339;29;20109;-66
2024/01/21 09:05:13;;;;;;;13.38;7.15;;;-3.50;99.90;;;;;;4859496;29;20047;-65
2024/01/21 09:07:39;;;;;;;16.08;6.68;;;-3.40;99.90;;;;;;4855969;29;20120;-66
2024/01/21 09:10:08;;;;;;;17.92;6.63;;;-3.40;99.90;;;;;;4858431;29;20121;-66
2024/01/21 09:12:35;;;;;;;13.95;7.65;;;-3.30;99.90;;;;;;4873020;29;20061;-66
2024/01/21 09:15:02;;;;;;;8.00;5.38;;;-3.20;99.90;;;;;;4859995;29;20080;-66
2024/01/21 09:17:27;;;;;;;10.95;5.95;;;-3.30;99.90;;;;;;4855406;29;20116;-66
2024/01/21 09:19:53;;;;;;;6.30;4.45;;;-3.20;99.90;;;;;;4858110;29;20124;-66
2024/01/21 09:22:20;;;;;;;15.52;5.72;;;-3.20;99.90;;;;;;4858674;29;20068;-66
2024/01/21 09:24:48;;;;;;;20.80;9.10;;;-3.10;99.90;;;;;;4858155;29;20025;-67
2024/01/21 09:27:15;;;;;;;5.05;4.53;;;-3.00;99.90;;;;;;4859270;29;20109;-67
2024/01/21 09:29:43;;;;;;;9.18;6.07;;;-3.00;99.90;;;;;;4857826;29;20435;-67
2024/01/21 09:32:10;;;;;;;12.02;6.80;;;-2.90;99.90;;;;;;4853898;29;20382;-67
2024/01/21 09:34:39;;;;;;;8.00;5.88;;;-2.80;99.90;;;;;;4873775;29;20090;-69
2024/01/21 09:37:06;;;;;;;10.55;7.35;;;-2.70;99.90;;;;;;4870055;29;20034;-68
2024/01/21 09:39:32;;;;;;;12.55;7.22;;;-2.60;99.90;;;;;;4859278;29;20034;-68
2024/01/21 09:41:58;;;;;;;10.20;5.95;;;-2.50;99.90;;;;;;4874005;29;20177;-67
2024/01/21 09:44:28;;;;;;;10.43;5.75;;;-2.50;99.90;;;;;;4859139;29;20424;-66
2024/01/21 09:46:59;;;;;;;15.73;7.40;;;-2.40;99.90;;;;;;4855468;29;20041;-66
2024/01/21 09:49:26;;;;;;;18.13;7.13;;;-2.30;99.90;;;;;;4858635;29;20046;-66
2024/01/21 09:51:54;;;;;;;13.38;7.68;;;-2.30;99.90;;;;;;4858221;29;20394;-67
2024/01/21 09:54:22;;;;;;;17.00;7.45;;;-2.30;99.90;;;;;;4858707;29;20109;-67
2024/01/21 09:56:48;;;;;;;15.60;7.18;;;-2.30;99.90;;;;;;4855650;29;20542;-67
2024/01/21 09:59:16;;;;;;;11.20;6.18;;;-2.40;99.90;;;;;;4858948;29;20041;-66
2024/01/21 10:01:42;;;;;;;18.05;8.00;;;-2.40;99.90;;;;;;4838675;29;20065;-66
2024/01/21 10:04:14;;;;;;;11.07;6.32;;;-2.20;99.90;;;;;;4857798;29;20033;-65
2024/01/21 10:06:40;;;;;;;13.85;8.27;;;-2.20;99.90;;;;;;4858712;29;20105;-62
2024/01/21 10:09:22;;;;;;;9.93;6.70;;;-2.10;99.90;;;;;;4857425;29;20025;-62
2024/01/21 10:11:56;;;;;;;16.50;7.07;;;-1.90;99.90;;;;;;4857502;29;20037;-66
2024/01/21 10:14:28;;;;;;;12.00;8.07;;;-1.70;99.90;;;;;;4858763;29;20033;-68
2024/01/21 10:17:01;;;;;;;17.88;7.72;;;-1.60;99.90;;;;;;4872678;29;20057;-66
2024/01/21 10:19:34;;;;;;;14.55;7.00;;;-1.50;99.90;;;;;;4857794;29;20447;-66
2024/01/21 10:22:18;;;;;;;12.75;7.00;;;-1.40;99.90;;;;;;4855485;29;20041;-66
2024/01/21 10:24:47;;;;;;;20.77;8.40;;;-1.50;99.90;;;;;;4857622;29;20033;-66
2024/01/21 10:27:13;;;;;;;12.75;5.50;;;-1.60;99.90;;;;;;4833516;29;20045;-66
2024/01/21 10:29:41;;;;;;;11.85;7.93;;;-1.70;99.90;;;;;;4872506;29;20037;-66
2024/01/21 10:32:11;;;;;;;12.75;7.60;;;-1.80;99.90;;;;;;4854769;29;20033;-66
2024/01/21 10:34:48;;;;;;;12.02;5.07;;;-1.60;99.90;;;;;;4857532;29;20056;-67
2024/01/21 10:37:15;;;;;;;18.05;7.88;;;-1.50;99.90;;;;;;4853670;29;20029;-67
2024/01/21 10:39:45;;;;;;;21.00;8.02;;;-1.30;99.90;;;;;;4858779;29;20049;-66
2024/01/21 10:42:13;;;;;;;14.90;9.50;;;-1.30;99.90;;;;;;4855079;29;20038;-66
2024/01/21 10:44:40;;;;;;;17.38;7.63;;;-1.50;99.90;;;;;;4860950;29;20144;-66
2024/01/21 10:47:08;;;;;;;12.65;5.93;;;-1.40;99.90;;;;;;4856895;29;20079;-66
2024/01/21 10:49:35;;;;;;;9.63;6.65;;;-1.10;99.90;;;;;;4860732;29;20101;-67
2024/01/21 10:52:01;;;;;;;10.30;6.07;;;-1.40;99.90;;;;;;4858229;29;20036;-66
2024/01/21 10:54:31;;;;;;;13.32;6.53;;;-1.40;99.90;;;;;;4860531;29;20037;-66
2024/01/21 10:56:57;;;;;;;21.88;7.47;;;-1.00;99.90;;;;;;4856135;29;20550;-65
2024/01/21 10:59:24;;;;;;;10.25;6.35;;;-0.50;99.90;;;;;;4861672;29;20048;-67
2024/01/21 11:01:50;;;;;;;18.48;6.00;;;-0.30;99.90;;;;;;4861249;29;20491;-65
2024/01/21 11:04:16;;;;;;;15.05;8.02;;;-0.40;99.90;;;;;;4860583;29;20128;-66
2024/01/21 11:06:51;;;;;;;9.98;6.32;;;0.50;99.90;;;;;;4860020;29;20056;-66
2024/01/21 11:09:22;;;;;;;16.40;8.70;;;0.60;99.90;;;;;;4860988;29;20044;-65
2024/01/21 11:11:50;;;;;;;12.77;7.35;;;1.40;99.90;;;;;;4855887;29;20170;-66
2024/01/21 11:14:39;;;;;;;12.93;7.90;;;0.60;99.90;;;;;;4859455;29;20053;-65
2024/01/21 11:17:12;;;;;;;12.88;7.43;;;0.20;99.90;;;;;;4860824;29;20743;-64
2024/01/21 11:19:55;;;;;;;21.67;7.85;;;0.00;99.90;;;;;;4861534;29;20047;-65
2024/01/21 11:22:25;;;;;;;14.50;7.10;;;-0.10;99.90;;;;;;4855870;29;20049;-65
2024/01/21 11:24:54;;;;;;;13.38;7.88;;;-0.20;99.90;;;;;;4861130;29;20490;-65
2024/01/21 11:27:25;;;;;;;12.82;6.95;;;-0.50;99.90;;;;;;4855903;29;20093;-64
2024/01/21 11:29:57;;;;;;;18.00;8.10;;;-0.40;99.90;;;;;;4860748;29;20044;-65
2024/01/21 11:32:26;;;;;;;13.68;5.80;;;-0.60;99.90;;;;;;4855420;29;20086;-65
2024/01/21 11:34:52;;;;;;;11.63;6.63;;;-0.60;99.90;;;;;;4860870;29;20036;-64
2024/01/21 11:37:19;;;;;;;14.95;7.10;;;-0.70;99.90;;;;;;4855966;29;20471;-65
2024/01/21 11:39:46;;;;;;;10.48;5.85;;;-0.90;99.90;;;;;;4859821;29;20108;-68
2024/01/21 11:42:12;;;;;;;12.40;6.20;;;-0.90;99.90;;;;;;4855981;29;20029;-67
2024/01/21 11:44:41;;;;;;;6.80;4.07;;;-0.80;99.90;;;;;;4860998;29;20056;-68
2024/01/21 11:47:07;;;;;;;8.60;5.03;;;-0.80;99.90;;;;;;4860511;29;20033;-66
2024/01/21 11:49:35;;;;;;;26.10;6.70;;;-0.80;99.90;;;;;;4859935;29;20467;-66
2024/01/21 11:52:06;;;;;;;23.23;6.93;;;-0.60;99.90;;;;;;4858605;29;20558;-66
2024/01/21 11:54:34;;;;;;;6.30;4.00;;;-0.60;99.90;;;;;;4859347;29;20674;-67
2024/01/21 11:57:00;;;;;;;15.88;5.15;;;-0.50;99.90;;;;;;4860465;29;20041;-67
2024/01/21 11:59:26;;;;;;;14.25;6.10;;;-0.50;99.90;;;;;;4860084;29;20044;-67
2024/01/21 12:01:58;;;;;;;19.33;8.43;;;-0.50;99.90;;;;;;4855163;29;20778;-66
2024/01/21 12:04:28;;;;;;;13.05;5.63;;;-0.40;99.90;;;;;;4858653;29;20048;-67
2024/01/21 12:06:55;;;;;;;15.27;7.47;;;-0.40;99.90;;;;;;4854640;29;20044;-67
2024/01/21 12:09:22;;;;;;;11.88;5.82;;;-0.30;99.90;;;;;;4874227;29;20045;-67
2024/01/21 12:11:49;;;;;;;11.73;5.28;;;-0.10;99.90;;;;;;4859646;29;20045;-67
2024/01/21 12:14:16;;;;;;;12.50;6.50;;;-0.10;99.90;;;;;;4857824;29;20045;-67
2024/01/21 12:16:42;;;;;;;17.30;7.85;;;0.10;99.90;;;;;;4874444;29;20022;-67
2024/01/21 12:19:10;;;;;;;15.30;6.90;;;0.10;99.90;;;;;;4856663;29;20029;-67
2024/01/21 12:21:36;;;;;;;19.08;6.82;;;0.30;99.90;;;;;;4860544;29;20124;-66
2024/01/21 12:24:02;;;;;;;14.98;6.43;;;0.50;99.90;;;;;;4859389;29;20132;-66
2024/01/21 12:26:29;;;;;;;15.57;8.50;;;0.60;99.90;;;;;;4860027;29;20054;-66
2024/01/21 12:29:09;;;;;;;11.60;6.40;;;0.60;99.90;;;;;;4859497;29;20037;-67
2024/01/21 12:31:37;;;;;;;16.55;6.80;;;0.60;99.90;;;;;;4858809;29;20033;-66
2024/01/21 12:34:06;;;;;;;15.45;7.53;;;0.30;99.90;;;;;;4857614;29;20116;-66
2024/01/21 12:36:33;;;;;;;20.73;8.50;;;0.30;99.90;;;;;;4858839;29;20555;-66
2024/01/21 12:39:00;;;;;;;15.10;8.07;;;0.30;99.90;;;;;;4873661;29;20037;-66